Terminal Aerodrome Forecast
Issued by NWS Buffalo, NY

Current Version | Previous Version | Text Only | Print | Product List | Glossary On
Versions: 1 2 3 4 5 6 7 8 9 10 11 12 13 14 15 16 17 18 19 20 21 22 23 24 25 26 27
000
FTUS41 KBUF 300300 AAA
TAFROC
TAF AMD
KROC 300305Z 3003/3024 22005KT P6SM SCT045 BKN080
     FM300600 20007KT P6SM SCT045 BKN070
     FM300900 21007KT P6SM BKN045
     FM301500 23010KT P6SM VCSH BKN045 BKN100
     FM301700 26010KT P6SM -SHRA BKN035 OVC100
     FM302100 27007KT P6SM VCSH BKN035 OVC100=

USA.gov is the U.S. government's official web portal to all federal, state and local government web resources and services.